NCAR-RAP Real-Time Weather Data

Output produced by METARs form (19 October 2018  15:00 UTC)
found at http://weather.rap.ucar.edu/surface/
 
RJAA 191430Z 33007KT 9999 FEW020 BKN100 BKN/// 15/13 Q1017 NOSIG
 
 
RJAH 191400Z 35007KT 9999 FEW015 SCT060 14/13 Q1018
 
RJGG 191430Z 01004KT 9999 FEW020 SCT030 BKN/// 17/15 Q1017 NOSIG
 
RJNK 191400Z 10005KT 9999 FEW015CB BKN100 14/12 Q1019 RETS
 
RJNT 191200Z VRB02KT 9999 SCT090 13/12 Q1019
 
RJNW 191000Z VRB01KT 9999 FEW000 SCT030 BKN070 12/12 Q1018
 
 
 
 
RJTT 191430Z 35012KT 9999 FEW020 BKN/// 18/14 Q1017 NOSIG